createdAt,value
2023-04-16T00:00:11.954Z,100.00
2023-04-16T00:02:42.752Z,100.00
2023-04-16T00:05:12.921Z,100.00
2023-04-16T00:07:43.379Z,100.00
2023-04-16T00:10:14.199Z,99.53
2023-04-16T00:12:44.303Z,100.00
2023-04-16T00:15:14.822Z,100.00
2023-04-16T00:17:45.278Z,100.00
2023-04-16T00:20:16.019Z,100.00
2023-04-16T00:22:46.471Z,100.00
2023-04-16T00:25:16.844Z,100.00
2023-04-16T00:27:47.018Z,100.00
2023-04-16T00:30:17.035Z,100.00
2023-04-16T00:32:47.945Z,100.00
2023-04-16T00:35:18.160Z,100.00
2023-04-16T00:37:48.840Z,100.00
2023-04-16T00:40:18.889Z,100.00
2023-04-16T00:42:49.253Z,100.00
2023-04-16T00:45:20.167Z,100.00
2023-04-16T00:47:51.014Z,100.00
2023-04-16T00:50:21.753Z,100.00
2023-04-16T00:52:52.365Z,100.00
2023-04-16T00:55:22.675Z,100.00
2023-04-16T00:57:52.713Z,100.00
2023-04-16T01:00:23.468Z,100.00
2023-04-16T01:02:53.970Z,100.00
2023-04-16T01:05:24.198Z,100.00
2023-04-16T01:07:54.315Z,100.00
2023-04-16T01:10:24.834Z,100.00
2023-04-16T01:12:54.810Z,100.00
2023-04-16T01:15:24.873Z,100.00
2023-04-16T01:17:55.403Z,100.00
2023-04-16T01:20:25.833Z,100.00
2023-04-16T01:22:56.569Z,100.00
2023-04-16T01:25:27.005Z,100.00
2023-04-16T01:27:57.536Z,100.00
2023-04-16T01:30:27.738Z,100.00
2023-04-16T01:32:58.323Z,100.00
2023-04-16T01:35:28.445Z,100.00
2023-04-16T01:37:59.121Z,100.00
2023-04-16T01:40:29.370Z,100.00
2023-04-16T01:42:59.288Z,100.00
2023-04-16T01:45:29.801Z,100.00
2023-04-16T01:48:00.018Z,100.00
2023-04-16T01:50:30.155Z,100.00
2023-04-16T01:53:00.213Z,100.00
2023-04-16T01:55:30.921Z,100.00
2023-04-16T01:58:00.971Z,100.00
2023-04-16T02:00:31.325Z,100.00
2023-04-16T02:03:01.913Z,100.00
2023-04-16T02:05:31.836Z,100.00
2023-04-16T02:08:02.635Z,100.00
2023-04-16T02:10:33.447Z,100.00
2023-04-16T02:13:03.686Z,100.00
2023-04-16T02:15:34.262Z,100.00
2023-04-16T02:18:04.648Z,100.00
2023-04-16T02:20:34.671Z,100.00
2023-04-16T02:23:05.267Z,100.00
2023-04-16T02:25:35.781Z,100.00
2023-04-16T02:28:06.102Z,100.00
2023-04-16T02:30:36.822Z,100.00
2023-04-16T02:33:07.599Z,100.00
2023-04-16T02:35:37.940Z,100.00
2023-04-16T02:38:08.691Z,100.00
2023-04-16T02:40:38.681Z,100.00
2023-04-16T02:43:09.327Z,100.00
2023-04-16T02:45:39.567Z,100.00
2023-04-16T02:48:09.939Z,100.00
2023-04-16T02:50:40.403Z,100.00
2023-04-16T02:53:10.715Z,100.00
2023-04-16T02:55:41.498Z,100.00
2023-04-16T02:58:11.981Z,100.00
2023-04-16T03:00:42.513Z,100.00
2023-04-16T03:03:13.101Z,100.00
2023-04-16T03:05:43.509Z,100.00
2023-04-16T03:08:13.777Z,100.00
2023-04-16T03:10:44.563Z,100.00
2023-04-16T03:13:14.819Z,100.00
2023-04-16T03:15:45.533Z,100.00
2023-04-16T03:18:16.454Z,100.00
2023-04-16T03:20:46.578Z,100.00
2023-04-16T03:23:17.379Z,100.00
2023-04-16T03:25:47.577Z,100.00
2023-04-16T03:28:17.916Z,100.00
2023-04-16T03:30:47.989Z,100.00
2023-04-16T03:33:18.386Z,100.00
2023-04-16T03:35:48.689Z,100.00
2023-04-16T03:38:19.515Z,100.00
2023-04-16T03:40:49.711Z,100.00
2023-04-16T03:43:20.248Z,100.00
2023-04-16T03:45:50.487Z,100.00
2023-04-16T03:48:21.432Z,100.00
2023-04-16T03:50:51.569Z,100.00
2023-04-16T03:53:21.861Z,100.00
2023-04-16T03:55:51.892Z,100.00
2023-04-16T03:58:22.265Z,100.00
2023-04-16T04:00:53.129Z,100.00
2023-04-16T04:03:23.360Z,100.00
2023-04-16T04:05:53.715Z,100.00
2023-04-16T04:08:23.935Z,100.00
2023-04-16T04:10:54.392Z,100.00
2023-04-16T04:13:24.570Z,100.00
2023-04-16T04:15:54.784Z,100.00
2023-04-16T04:18:25.580Z,100.00
2023-04-16T04:20:56.392Z,100.00
2023-04-16T04:23:27.230Z,100.00
2023-04-16T04:25:58.008Z,100.00
2023-04-16T04:28:28.704Z,100.00
2023-04-16T04:30:59.237Z,100.00
2023-04-16T04:33:29.534Z,100.00
2023-04-16T04:35:59.806Z,100.00
2023-04-16T04:38:30.473Z,100.00
2023-04-16T04:41:00.601Z,100.00
2023-04-16T04:43:31.336Z,100.00
2023-04-16T04:46:02.037Z,100.00
2023-04-16T04:48:32.458Z,100.00
2023-04-16T04:51:04.755Z,100.00
2023-04-16T04:53:33.057Z,100.00
2023-04-16T04:56:12.443Z,100.00
2023-04-16T04:58:33.994Z,100.00
2023-04-16T05:01:04.824Z,100.00
2023-04-16T05:03:35.253Z,100.00
2023-04-16T05:06:05.819Z,100.00
2023-04-16T05:08:36.460Z,100.00
2023-04-16T05:11:06.627Z,100.00
2023-04-16T05:13:37.241Z,100.00
2023-04-16T05:16:07.321Z,100.00
2023-04-16T05:18:38.005Z,100.00
2023-04-16T05:21:08.728Z,100.00
2023-04-16T05:23:39.138Z,100.00
2023-04-16T05:26:09.638Z,100.00
2023-04-16T05:28:39.815Z,100.00
2023-04-16T05:31:10.530Z,100.00
2023-04-16T05:33:40.611Z,100.00
2023-04-16T05:36:11.256Z,100.00
2023-04-16T05:38:41.613Z,100.00
2023-04-16T05:41:12.062Z,100.00
2023-04-16T05:43:42.926Z,99.54
2023-04-16T05:46:13.204Z,99.69
2023-04-16T05:48:43.355Z,99.66
2023-04-16T05:51:14.214Z,99.31
2023-04-16T05:53:44.731Z,99.65
2023-04-16T05:56:14.850Z,99.32
2023-04-16T05:58:45.210Z,100.00
2023-04-16T06:01:16.211Z,100.00
2023-04-16T06:03:46.325Z,100.00
2023-04-16T06:06:16.962Z,100.00
2023-04-16T06:08:47.323Z,100.00
2023-04-16T06:11:17.384Z,100.00
2023-04-16T06:13:47.723Z,100.00
2023-04-16T06:16:17.844Z,100.00
2023-04-16T06:18:48.150Z,100.00
2023-04-16T06:21:18.797Z,100.00
2023-04-16T06:23:49.609Z,99.94
2023-04-16T06:26:20.132Z,100.00
2023-04-16T06:28:50.952Z,100.00
2023-04-16T06:31:21.261Z,100.00
2023-04-16T06:33:51.776Z,100.00
2023-04-16T06:36:22.104Z,100.00
2023-04-16T06:38:52.835Z,100.00
2023-04-16T06:41:23.062Z,100.00
2023-04-16T06:43:53.909Z,100.00
2023-04-16T06:46:24.611Z,100.00
2023-04-16T06:48:54.644Z,100.00
2023-04-16T06:51:24.681Z,100.00
2023-04-16T06:53:55.588Z,100.00
2023-04-16T06:56:25.706Z,100.00
2023-04-16T06:58:56.264Z,100.00
2023-04-16T07:01:26.329Z,100.00
2023-04-16T07:03:56.740Z,100.00
2023-04-16T07:06:26.667Z,100.00
2023-04-16T07:08:57.295Z,100.00
2023-04-16T07:11:27.736Z,100.00
2023-04-16T07:13:58.290Z,100.00
2023-04-16T07:16:28.956Z,100.00
2023-04-16T07:18:59.447Z,100.00
2023-04-16T07:21:30.032Z,100.00
2023-04-16T07:24:00.114Z,100.00
2023-04-16T07:26:30.539Z,100.00
2023-04-16T07:29:01.087Z,100.00
2023-04-16T07:31:31.842Z,100.00
2023-04-16T07:34:02.248Z,100.00
2023-04-16T07:36:33.148Z,100.00
2023-04-16T07:39:03.568Z,100.00
2023-04-16T07:41:34.231Z,100.00
2023-04-16T07:44:04.303Z,100.00
2023-04-16T07:46:45.652Z,100.00
2023-04-16T07:49:05.797Z,100.00
2023-04-16T07:51:36.174Z,100.00
2023-04-16T07:54:06.688Z,100.00
2023-04-16T07:56:37.420Z,100.00
2023-04-16T07:59:21.108Z,99.75
2023-04-16T08:01:38.419Z,99.73
2023-04-16T08:04:09.380Z,99.91
2023-04-16T08:06:39.475Z,98.79
2023-04-16T08:09:10.402Z,99.09
2023-04-16T08:11:40.783Z,99.25
2023-04-16T08:14:11.211Z,99.42
2023-04-16T08:16:41.233Z,98.65
2023-04-16T08:19:12.146Z,98.40
2023-04-16T08:21:42.644Z,98.38
2023-04-16T08:24:12.700Z,97.80
2023-04-16T08:26:43.417Z,97.77
2023-04-16T08:29:13.658Z,97.61
2023-04-16T08:31:43.746Z,98.26
2023-04-16T08:34:14.501Z,98.14
2023-04-16T08:36:44.939Z,97.34
2023-04-16T08:39:15.351Z,97.15
2023-04-16T08:41:46.047Z,96.91
2023-04-16T08:44:16.122Z,96.60
2023-04-16T08:46:46.331Z,96.87
2023-04-16T08:49:16.411Z,95.82
2023-04-16T08:51:46.710Z,96.32
2023-04-16T08:54:17.250Z,95.51
2023-04-16T08:56:48.068Z,95.65
2023-04-16T08:59:18.640Z,95.32
2023-04-16T09:01:49.019Z,95.59
2023-04-16T09:04:19.984Z,95.17
2023-04-16T09:06:49.885Z,95.31
2023-04-16T09:09:19.978Z,94.80
2023-04-16T09:11:50.511Z,94.96
2023-04-16T09:14:20.853Z,93.92
2023-04-16T09:16:51.149Z,94.29
2023-04-16T09:19:21.417Z,93.96
2023-04-16T09:21:51.697Z,93.73
2023-04-16T09:24:22.459Z,93.39
2023-04-16T09:26:53.090Z,93.24
2023-04-16T09:29:23.418Z,93.10
2023-04-16T09:31:54.161Z,92.85
2023-04-16T09:34:24.248Z,92.74
2023-04-16T09:36:54.709Z,92.13
2023-04-16T09:39:25.442Z,91.47
2023-04-16T09:41:56.099Z,92.32
2023-04-16T09:44:26.438Z,92.65
2023-04-16T09:46:57.004Z,92.19
2023-04-16T09:49:27.834Z,91.94
2023-04-16T09:51:58.263Z,91.87
2023-04-16T09:54:28.384Z,91.85
2023-04-16T09:56:59.160Z,91.84
2023-04-16T09:59:29.577Z,91.06
2023-04-16T10:02:14.698Z,90.52
2023-04-16T10:04:30.269Z,90.96
2023-04-16T10:07:00.841Z,89.05
2023-04-16T10:09:31.368Z,89.35
2023-04-16T10:12:01.959Z,90.05
2023-04-16T10:14:31.998Z,89.92
2023-04-16T10:17:02.497Z,89.22
2023-04-16T10:19:33.144Z,89.26
2023-04-16T10:22:03.983Z,89.63
2023-04-16T10:24:34.641Z,88.94
2023-04-16T10:27:04.886Z,89.57
2023-04-16T10:29:35.473Z,89.74
2023-04-16T10:32:05.532Z,89.33
2023-04-16T10:34:35.850Z,88.64
2023-04-16T10:37:06.372Z,87.12
2023-04-16T10:39:36.459Z,87.76
2023-04-16T10:42:07.084Z,87.39
2023-04-16T10:44:37.305Z,87.67
2023-04-16T10:47:07.350Z,87.74
2023-04-16T10:49:37.691Z,87.55
2023-04-16T10:52:08.517Z,87.71
2023-04-16T10:54:38.605Z,87.78
2023-04-16T10:57:08.782Z,87.40
2023-04-16T10:59:39.600Z,87.65
2023-04-16T11:02:10.235Z,87.14
2023-04-16T11:04:40.940Z,88.70
2023-04-16T11:07:10.767Z,88.09
2023-04-16T11:09:41.044Z,88.53
2023-04-16T11:12:11.306Z,88.25
2023-04-16T11:14:41.350Z,87.96
2023-04-16T11:17:11.482Z,88.23
2023-04-16T11:19:42.151Z,86.61
2023-04-16T11:22:12.841Z,87.16
2023-04-16T11:24:43.471Z,87.04
2023-04-16T11:27:13.941Z,87.80
2023-04-16T11:29:46.897Z,87.19
2023-04-16T11:32:15.170Z,88.16
2023-04-16T11:34:45.705Z,87.18
2023-04-16T11:37:15.884Z,87.42
2023-04-16T11:39:46.739Z,86.83
2023-04-16T11:42:16.818Z,87.39
2023-04-16T11:44:46.797Z,87.81
2023-04-16T11:47:17.139Z,87.31
2023-04-16T11:49:48.115Z,86.18
2023-04-16T11:52:17.952Z,86.00
2023-04-16T11:54:48.022Z,86.43
2023-04-16T11:57:18.058Z,85.08
2023-04-16T12:00:01.426Z,85.78
2023-04-16T12:02:18.951Z,85.61
2023-04-16T12:04:49.655Z,85.77
2023-04-16T12:07:19.847Z,84.45
2023-04-16T12:09:50.464Z,85.08
2023-04-16T12:12:21.019Z,85.35
2023-04-16T12:14:51.098Z,85.29
2023-04-16T12:17:21.808Z,85.86
2023-04-16T12:19:52.480Z,86.20
2023-04-16T12:22:22.872Z,86.38
2023-04-16T12:24:53.230Z,86.93
2023-04-16T12:27:23.677Z,85.85
2023-04-16T12:29:53.913Z,85.94
2023-04-16T12:32:24.043Z,87.95
2023-04-16T12:34:54.594Z,85.29
2023-04-16T12:37:24.691Z,86.02
2023-04-16T12:39:55.044Z,85.64
2023-04-16T12:42:25.757Z,85.01
2023-04-16T12:44:56.573Z,84.60
2023-04-16T12:47:27.308Z,85.38
2023-04-16T12:49:58.110Z,85.42
2023-04-16T12:52:28.996Z,84.71
2023-04-16T12:54:59.267Z,84.49
2023-04-16T12:57:30.049Z,84.77
2023-04-16T13:00:00.091Z,84.61
2023-04-16T13:02:30.399Z,85.21
2023-04-16T13:05:01.027Z,84.69
2023-04-16T13:07:31.199Z,84.36
2023-04-16T13:10:01.398Z,83.95
2023-04-16T13:12:31.407Z,85.04
2023-04-16T13:15:01.987Z,83.98
2023-04-16T13:17:32.085Z,85.66
2023-04-16T13:20:02.452Z,84.05
2023-04-16T13:22:33.039Z,84.48
2023-04-16T13:25:03.561Z,84.41
2023-04-16T13:27:33.775Z,83.71
2023-04-16T13:30:04.352Z,83.89
2023-04-16T13:32:34.916Z,82.84
2023-04-16T13:35:05.770Z,82.61
2023-04-16T13:37:35.880Z,82.23
2023-04-16T13:40:06.505Z,83.12
2023-04-16T13:42:36.849Z,83.93
2023-04-16T13:45:07.476Z,83.81
2023-04-16T13:47:38.113Z,83.56
2023-04-16T13:50:08.211Z,82.99
2023-04-16T13:52:38.733Z,83.57
2023-04-16T13:55:09.632Z,83.73
2023-04-16T13:57:39.598Z,83.17
2023-04-16T14:00:12.658Z,83.44
2023-04-16T14:02:40.734Z,82.82
2023-04-16T14:05:11.090Z,79.45
2023-04-16T14:07:41.782Z,78.31
2023-04-16T14:10:12.593Z,78.16
2023-04-16T14:12:43.166Z,78.50
2023-04-16T14:15:13.505Z,79.15
2023-04-16T14:17:43.710Z,79.34
2023-04-16T14:20:13.946Z,78.51
2023-04-16T14:22:43.966Z,79.16
2023-04-16T14:25:14.274Z,77.40
2023-04-16T14:27:44.395Z,77.71
2023-04-16T14:30:15.161Z,77.18
2023-04-16T14:32:45.936Z,78.78
2023-04-16T14:35:16.523Z,78.41
2023-04-16T14:37:47.245Z,78.06
2023-04-16T14:40:17.766Z,77.90
2023-04-16T14:42:48.508Z,77.13
2023-04-16T14:45:18.542Z,76.16
2023-04-16T14:47:48.554Z,77.21
2023-04-16T14:50:19.048Z,77.67
2023-04-16T14:52:49.830Z,79.16
2023-04-16T14:55:20.148Z,77.56
2023-04-16T14:57:50.826Z,78.61
2023-04-16T15:00:21.116Z,80.30
2023-04-16T15:02:51.699Z,81.30
2023-04-16T15:05:22.125Z,81.18
2023-04-16T15:07:52.561Z,81.21
2023-04-16T15:10:22.606Z,81.55
2023-04-16T15:12:52.821Z,81.41
2023-04-16T15:15:23.688Z,80.42
2023-04-16T15:17:54.161Z,79.19
2023-04-16T15:20:24.617Z,79.24
2023-04-16T15:22:55.045Z,79.49
2023-04-16T15:25:25.823Z,79.53
2023-04-16T15:27:56.055Z,79.06
2023-04-16T15:30:26.239Z,78.24
2023-04-16T15:32:56.486Z,77.67
2023-04-16T15:35:26.780Z,77.96
2023-04-16T15:37:57.237Z,79.47
2023-04-16T15:40:28.046Z,78.65
2023-04-16T15:42:58.750Z,78.34
2023-04-16T15:45:29.315Z,78.56
2023-04-16T15:47:59.537Z,78.66
2023-04-16T15:50:30.344Z,77.81
2023-04-16T15:53:00.553Z,77.74
2023-04-16T15:55:30.574Z,78.67
2023-04-16T15:58:00.655Z,77.98
2023-04-16T16:00:31.407Z,78.55
2023-04-16T16:03:02.102Z,76.99
2023-04-16T16:05:32.117Z,78.48
2023-04-16T16:08:02.908Z,79.43
2023-04-16T16:10:33.123Z,79.64
2023-04-16T16:13:03.588Z,79.85
2023-04-16T16:15:33.848Z,80.22
2023-04-16T16:18:04.058Z,79.93
2023-04-16T16:20:34.751Z,80.59
2023-04-16T16:23:05.363Z,81.01
2023-04-16T16:25:35.565Z,81.00
2023-04-16T16:28:06.492Z,81.03
2023-04-16T16:30:36.683Z,82.08
2023-04-16T16:33:07.621Z,80.92
2023-04-16T16:35:38.035Z,81.14
2023-04-16T16:38:08.795Z,81.35
2023-04-16T16:40:39.615Z,81.99
2023-04-16T16:43:09.913Z,82.52
2023-04-16T16:45:40.384Z,82.50
2023-04-16T16:48:11.182Z,81.86
2023-04-16T16:50:41.770Z,80.92
2023-04-16T16:53:12.191Z,81.32
2023-04-16T16:55:42.759Z,81.65
2023-04-16T16:58:13.012Z,80.92
2023-04-16T17:00:43.534Z,80.97
2023-04-16T17:03:13.980Z,81.23
2023-04-16T17:05:44.072Z,81.55
2023-04-16T17:08:14.455Z,82.00
2023-04-16T17:10:45.206Z,82.01
2023-04-16T17:13:15.212Z,82.42
2023-04-16T17:15:45.419Z,83.31
2023-04-16T17:18:15.959Z,83.42
2023-04-16T17:20:46.552Z,83.17
2023-04-16T17:23:16.994Z,83.23
2023-04-16T17:25:47.781Z,83.75
2023-04-16T17:28:18.350Z,84.07
2023-04-16T17:30:49.235Z,84.06
2023-04-16T17:33:19.875Z,84.62
2023-04-16T17:35:49.914Z,85.31
2023-04-16T17:38:20.120Z,85.23
2023-04-16T17:40:50.614Z,86.25
2023-04-16T17:43:21.084Z,86.41
2023-04-16T17:45:51.913Z,87.00
2023-04-16T17:48:22.660Z,87.65
2023-04-16T17:50:52.778Z,87.90
2023-04-16T17:53:22.985Z,88.43
2023-04-16T17:55:56.568Z,88.63
2023-04-16T17:58:24.323Z,89.83
2023-04-16T18:00:54.568Z,89.86
2023-04-16T18:03:25.511Z,90.05
2023-04-16T18:05:55.696Z,91.11
2023-04-16T18:08:26.156Z,91.08
2023-04-16T18:10:56.412Z,91.40
2023-04-16T18:13:26.700Z,91.10
2023-04-16T18:15:56.998Z,91.73
2023-04-16T18:18:27.211Z,91.78
2023-04-16T18:20:57.942Z,91.41
2023-04-16T18:23:28.637Z,91.17
2023-04-16T18:25:59.172Z,91.75
2023-04-16T18:28:29.383Z,91.22
2023-04-16T18:30:59.503Z,91.25
2023-04-16T18:33:50.095Z,91.59
2023-04-16T18:36:00.337Z,91.24
2023-04-16T18:38:30.610Z,90.86
2023-04-16T18:41:01.397Z,90.08
2023-04-16T18:43:31.377Z,90.18
2023-04-16T18:46:02.139Z,90.30
2023-04-16T18:48:32.787Z,90.22
2023-04-16T18:51:03.343Z,90.46
2023-04-16T18:53:33.607Z,90.76
2023-04-16T18:56:03.829Z,90.72
2023-04-16T18:58:33.981Z,90.39
2023-04-16T19:01:04.038Z,90.81
2023-04-16T19:03:34.077Z,91.21
2023-04-16T19:06:04.925Z,91.14
2023-04-16T19:08:35.032Z,90.72
2023-04-16T19:11:05.863Z,91.16
2023-04-16T19:13:36.039Z,91.27
2023-04-16T19:16:06.362Z,91.52
2023-04-16T19:18:36.508Z,91.88
2023-04-16T19:21:06.689Z,92.23
2023-04-16T19:23:37.319Z,91.60
2023-04-16T19:26:07.850Z,91.83
2023-04-16T19:28:38.008Z,92.31
2023-04-16T19:31:08.694Z,90.33
2023-04-16T19:33:39.000Z,90.87
2023-04-16T19:36:09.728Z,89.65
2023-04-16T19:38:40.260Z,92.87
2023-04-16T19:41:10.575Z,93.14
2023-04-16T19:43:40.755Z,93.89
2023-04-16T19:46:10.839Z,94.21
2023-04-16T19:48:40.887Z,96.82
2023-04-16T19:51:11.356Z,98.36
2023-04-16T19:53:41.937Z,99.82
2023-04-16T19:56:12.009Z,99.92
2023-04-16T19:58:42.106Z,98.72
2023-04-16T20:01:12.792Z,100.00
2023-04-16T20:03:43.069Z,100.00
2023-04-16T20:06:13.210Z,99.91
2023-04-16T20:08:43.988Z,99.43
2023-04-16T20:11:14.633Z,99.53
2023-04-16T20:13:45.166Z,97.68
2023-04-16T20:16:16.098Z,99.51
2023-04-16T20:18:46.540Z,98.74
2023-04-16T20:21:17.201Z,97.65
2023-04-16T20:23:47.224Z,98.21
2023-04-16T20:26:17.362Z,97.51
2023-04-16T20:28:47.703Z,96.97
2023-04-16T20:31:17.969Z,96.59
2023-04-16T20:33:48.309Z,96.95
2023-04-16T20:36:18.914Z,97.47
2023-04-16T20:38:50.779Z,97.20
2023-04-16T20:41:20.196Z,98.29
2023-04-16T20:43:50.310Z,98.94
2023-04-16T20:46:23.263Z,99.86
2023-04-16T20:48:51.885Z,100.00
2023-04-16T20:51:22.103Z,100.00
2023-04-16T20:53:52.139Z,100.00
2023-04-16T20:56:22.722Z,100.00
2023-04-16T20:58:53.119Z,100.00
2023-04-16T21:01:23.420Z,100.00
2023-04-16T21:03:54.008Z,100.00
2023-04-16T21:06:24.140Z,100.00
2023-04-16T21:08:54.187Z,100.00
2023-04-16T21:11:24.373Z,99.65
2023-04-16T21:13:54.847Z,99.46
2023-04-16T21:16:25.207Z,100.00
2023-04-16T21:18:56.120Z,100.00
2023-04-16T21:21:26.642Z,100.00
2023-04-16T21:23:57.466Z,100.00
2023-04-16T21:26:27.731Z,99.99
2023-04-16T21:28:58.627Z,98.33
2023-04-16T21:31:29.315Z,100.00
2023-04-16T21:33:59.879Z,99.23
2023-04-16T21:36:30.198Z,100.00
2023-04-16T21:39:00.750Z,100.00
2023-04-16T21:41:30.943Z,100.00
2023-04-16T21:44:01.529Z,100.00
2023-04-16T21:46:31.652Z,100.00
2023-04-16T21:49:02.458Z,99.88
2023-04-16T21:51:33.277Z,100.00
2023-04-16T21:54:03.293Z,99.97
2023-04-16T21:56:33.525Z,100.00
2023-04-16T21:59:04.234Z,100.00
2023-04-16T22:01:35.059Z,100.00
2023-04-16T22:04:04.961Z,99.63
2023-04-16T22:06:35.285Z,99.38
2023-04-16T22:09:05.877Z,100.00
2023-04-16T22:11:36.696Z,100.00
2023-04-16T22:14:06.946Z,100.00
2023-04-16T22:16:37.105Z,100.00
2023-04-16T22:19:07.152Z,100.00
2023-04-16T22:21:37.283Z,99.96
2023-04-16T22:24:07.515Z,99.28
2023-04-16T22:26:37.663Z,98.67
2023-04-16T22:29:08.443Z,99.41
2023-04-16T22:31:38.434Z,98.50
2023-04-16T22:34:08.478Z,99.05
2023-04-16T22:36:38.811Z,98.59
2023-04-16T22:39:09.816Z,99.58
2023-04-16T22:41:39.703Z,99.50
2023-04-16T22:44:10.417Z,99.86
2023-04-16T22:46:40.622Z,99.91
2023-04-16T22:49:10.743Z,100.00
2023-04-16T22:51:40.735Z,100.00
2023-04-16T22:54:12.587Z,100.00
2023-04-16T22:56:41.831Z,100.00
2023-04-16T22:59:12.268Z,100.00
2023-04-16T23:01:42.753Z,99.78
2023-04-16T23:04:13.252Z,99.98
2023-04-16T23:06:43.953Z,99.70
2023-04-16T23:09:14.488Z,99.73
2023-04-16T23:11:45.002Z,99.62
2023-04-16T23:14:16.714Z,99.26
2023-04-16T23:16:45.130Z,99.29
2023-04-16T23:19:15.246Z,99.30
2023-04-16T23:21:45.601Z,99.01
2023-04-16T23:24:16.221Z,98.76
2023-04-16T23:26:46.907Z,98.93
2023-04-16T23:29:17.008Z,99.01
2023-04-16T23:31:47.721Z,99.85
2023-04-16T23:34:17.611Z,99.17
2023-04-16T23:36:47.660Z,99.38
2023-04-16T23:39:17.850Z,99.57
2023-04-16T23:41:48.154Z,99.39
2023-04-16T23:44:18.401Z,98.86
2023-04-16T23:46:49.020Z,98.12
2023-04-16T23:49:19.553Z,98.45
2023-04-16T23:51:49.613Z,97.61
2023-04-16T23:54:19.781Z,97.94
2023-04-16T23:56:49.846Z,98.78
2023-04-16T23:59:20.135Z,98.63
